Panama City, FL

6:26 AM CDT on September 16, 2014 (GMT -0500)
Apalachicola Municipal | Change Station
CLOSE
Current Station
Airport
Location: Apalachicola,
Elevation: 20 ft
Nearby Weather Stations

Elev 20 ft 29.73 °N, 85.03 °W | Updated 33 minutes ago

Thunderstorm
Thunderstorm
79 °F
Feels Like 79 °F
N
13
Wind Variable Wind from SW

Today
High -- | Low -- °F
--% Chance of Precip.
Yesterday
High -- | Low -- °F
Precip. -- in
6:27 AM 6:46 PM
Last Quarter, 46% visible
Pressure 30.05 in
Visibility 10.0 miles
Clouds Overcast 6500 ft
Dew Point 74 °F
Humidity 84%
Rainfall 0.26 in
Snow Depth Not available.
UV 0 out of 12
Pollen 3.80 out of 12
Air Quality Not available.
Flu Activity Not available.
METAR KAAF 161053Z AUTO 23011KT 10SM OVC065 26/23 A3005 RMK AO2 LTG DSNT SW-NW RAB01E20 SLP174 P0000 T02610233

More Conditions Fewer Conditions

Pressure 30.05 in
Visibility 10.0 miles
Clouds Overcast 6500 ft
Dew Point 74 °F
Humidity 84%
Rainfall 0.26 in
Snow Depth Not available.
UV 0 out of 12
Pollen 3.80 out of 12
Air Quality Not available.
Flu Activity Not available.
METAR KAAF 161053Z AUTO 23011KT 10SM OVC065 26/23 A3005 RMK AO2 LTG DSNT SW-NW RAB01E20 SLP174 P0000 T02610233

More Conditions Fewer Conditions

10-Day Weather Forecast

Almanac

Astronomy

Sep. 16, 2014 Rise Set
Actual Time 6:27 AM CDT 6:46 PM CDT
Civil Twilight 6:03 AM CDT 7:10 PM CDT
Nautical Twilight 5:35 AM CDT 7:38 PM CDT
Astronomical Twilight 5:07 AM CDT 8:07 PM CDT
Moon No Moon Rise 1:51 PM CDT
Length of Visible Light 13h 07m
Length of Day
12h 19m
Tomorrow will be 1m 48s shorter.
Last Quarter, 46% of the Moon is Illuminated
Today
Last Quarter
Sep 24
New
Oct 1
First Quarter
Oct 8
Full
Oct 15
Last Quarter

Today's Extremes

State Highs State Lows

Community

WunderPhotos

Upload Photos

1,753,724 photos uploaded!

WunderBlogs® & News

By Dr. Jeff Masters
Director of Meteorology, Weather Underground
By Kari Strenfel
Meteorologist, Weather Underground
By Christopher C. Burt
Weather Historian, Weather Underground
September 16, 2014
September 16, 2014
September 16, 2014

Nearby

Snow Depth

Station Depth Elevation
No new snow has been reported.

Earthquake Activity

City Distance Mag. Time & Date
No recent earthquake activity has been reported nearby.
Minimum magnitude displayed is 2.5.

Coastal Water Temperatures

Place Temperature
Panama City, FL 86.0 °F
Panama City Beach, FL 86.0 °F
Apalachicola, FL 84.9 °F

Nearby Weather Stations